createdAt,value
2022-11-05T00:02:16.076Z,95473.38
2022-11-05T00:07:29.200Z,95476.56
2022-11-05T00:12:30.769Z,95483.78
2022-11-05T00:17:32.498Z,95491.31
2022-11-05T00:22:33.882Z,95498.81
2022-11-05T00:27:35.287Z,95507.28
2022-11-05T00:32:39.971Z,95509.09
2022-11-05T00:37:47.166Z,95505.50
2022-11-05T00:42:51.162Z,95516.53
2022-11-05T00:47:52.557Z,95515.69
2022-11-05T00:52:56.172Z,95523.06
2022-11-05T00:57:57.803Z,95525.09
2022-11-05T01:03:05.929Z,95532.63
2022-11-05T01:08:07.487Z,95535.06
2022-11-05T01:13:13.002Z,95541.13
2022-11-05T01:18:14.755Z,95547.69
2022-11-05T01:23:17.001Z,95547.50
2022-11-05T01:28:18.681Z,95548.97
2022-11-05T01:33:20.076Z,95551.59
2022-11-05T01:38:21.480Z,95558.09
2022-11-05T01:43:23.447Z,95554.41
2022-11-05T01:48:35.237Z,95553.00
2022-11-05T01:53:42.343Z,95560.91
2022-11-05T01:58:48.432Z,95565.44
2022-11-05T02:03:53.467Z,95558.91
2022-11-05T02:09:02.954Z,95569.94
2022-11-05T02:14:04.526Z,95561.91
2022-11-05T02:19:18.164Z,95563.72
2022-11-05T02:24:36.922Z,95556.59
2022-11-05T02:30:02.989Z,95561.84
2022-11-05T02:35:27.562Z,95567.97
2022-11-05T02:40:36.317Z,95576.34
2022-11-05T02:45:46.221Z,95580.53
2022-11-05T02:51:12.406Z,95587.06
2022-11-05T02:56:28.619Z,95587.66
2022-11-05T03:01:30.280Z,95593.47
2022-11-05T03:06:50.284Z,95586.06
2022-11-05T03:12:10.125Z,95589.31
2022-11-05T03:17:29.225Z,95587.50
2022-11-05T03:22:36.754Z,95590.66
2022-11-05T03:27:44.074Z,95596.03
2022-11-05T03:32:56.764Z,95597.22
2022-11-05T03:38:03.477Z,95600.06
2022-11-05T03:43:07.674Z,95603.44
2022-11-05T03:48:12.616Z,95608.91
2022-11-05T03:53:22.815Z,95607.00
2022-11-05T03:58:25.458Z,95622.66
2022-11-05T04:03:26.881Z,95629.94
2022-11-05T04:08:28.288Z,95633.59
2022-11-05T04:13:29.760Z,95634.06
2022-11-05T04:18:31.150Z,95640.38
2022-11-05T04:23:32.694Z,95649.50
2022-11-05T04:28:34.099Z,95655.78
2022-11-05T04:33:35.501Z,95667.00
2022-11-05T04:38:36.917Z,95668.31
2022-11-05T04:43:38.333Z,95670.47
2022-11-05T04:48:39.715Z,95679.16
2022-11-05T04:53:41.114Z,95680.50
2022-11-05T04:58:42.657Z,95682.88
2022-11-05T05:03:46.037Z,95686.22
2022-11-05T05:08:49.312Z,95680.38
2022-11-05T05:13:50.894Z,95691.38
2022-11-05T05:18:53.019Z,95685.63
2022-11-05T05:23:54.458Z,95685.50
2022-11-05T05:28:55.895Z,95691.38
2022-11-05T05:33:57.436Z,95698.91
2022-11-05T05:38:59.031Z,95707.63
2022-11-05T05:44:00.426Z,95714.31
2022-11-05T05:49:01.948Z,95714.09
2022-11-05T05:54:03.583Z,95716.59
2022-11-05T05:59:06.047Z,95732.00
2022-11-05T06:04:08.879Z,95728.53
2022-11-05T06:09:10.345Z,95734.03
2022-11-05T06:14:13.056Z,95730.44
2022-11-05T06:19:14.447Z,95743.22
2022-11-05T06:24:15.828Z,95748.59
2022-11-05T06:29:17.246Z,95758.91
2022-11-05T06:34:18.650Z,95766.31
2022-11-05T06:39:20.056Z,95771.81
2022-11-05T06:44:21.477Z,95780.78
2022-11-05T06:49:22.895Z,95787.59
2022-11-05T06:54:24.316Z,95798.81
2022-11-05T06:59:25.690Z,95805.75
2022-11-05T07:04:27.111Z,95812.81
2022-11-05T07:09:29.331Z,95805.66
2022-11-05T07:14:30.727Z,95818.06
2022-11-05T07:19:32.123Z,95822.97
2022-11-05T07:24:33.623Z,95829.91
2022-11-05T07:29:35.043Z,95833.50
2022-11-05T07:34:36.517Z,95840.66
2022-11-05T07:39:40.698Z,95850.34
2022-11-05T07:44:42.108Z,95854.28
2022-11-05T07:49:43.494Z,95867.53
2022-11-05T07:54:44.883Z,95876.63
2022-11-05T07:59:46.273Z,95875.41
2022-11-05T08:04:47.694Z,95873.28
2022-11-05T08:09:49.080Z,95891.56
2022-11-05T08:14:50.614Z,95892.75
2022-11-05T08:19:52.016Z,95902.44
2022-11-05T08:24:53.397Z,95896.22
2022-11-05T08:29:54.793Z,95895.25
2022-11-05T08:34:56.227Z,95896.81
2022-11-05T08:39:57.603Z,95896.81
2022-11-05T08:44:58.998Z,95899.69
2022-11-05T08:50:00.420Z,95899.78
2022-11-05T08:55:01.858Z,95909.09
2022-11-05T09:00:03.641Z,95912.47
2022-11-05T09:21:02.343Z,95933.63
2022-11-05T09:26:03.801Z,95941.06
2022-11-05T09:31:10.123Z,95943.09
2022-11-05T09:36:11.543Z,95951.69
2022-11-05T09:41:34.503Z,95961.50
2022-11-05T09:51:56.565Z,95960.53
2022-11-05T09:57:01.671Z,95957.06
2022-11-05T10:02:20.776Z,95966.63
2022-11-05T10:07:25.427Z,95969.03
2022-11-05T10:12:35.546Z,95980.50
2022-11-05T11:43:35.568Z,95993.16
2022-11-05T11:48:40.642Z,95995.97
2022-11-05T11:53:42.041Z,96000.78
2022-11-05T11:58:52.217Z,96001.00
2022-11-05T12:04:11.564Z,95994.75
2022-11-05T12:09:18.371Z,95994.19
2022-11-05T12:14:46.106Z,95985.09
2022-11-05T12:20:03.208Z,95996.16
2022-11-05T12:25:28.956Z,95989.72
2022-11-05T12:30:45.517Z,95985.66
2022-11-05T12:35:54.827Z,95993.16
2022-11-05T12:41:23.613Z,95991.13
2022-11-05T12:46:45.594Z,95990.84
2022-11-05T12:52:10.844Z,95986.75
2022-11-05T12:57:13.783Z,95982.66
2022-11-05T13:02:25.335Z,95988.72
2022-11-05T13:07:34.295Z,95986.63
2022-11-05T13:12:40.629Z,95983.16
2022-11-05T13:17:58.184Z,95982.03
2022-11-05T13:23:02.428Z,95985.09
2022-11-05T13:28:33.161Z,95981.88
2022-11-05T13:33:37.997Z,95986.00
2022-11-05T13:38:43.738Z,95995.34
2022-11-05T13:44:02.382Z,95992.53
2022-11-05T13:49:33.332Z,95991.53
2022-11-05T13:55:00.340Z,96001.66
2022-11-05T14:00:23.456Z,96001.13
2022-11-05T14:05:36.084Z,96015.19
2022-11-05T14:10:43.695Z,96018.34
2022-11-05T14:16:17.143Z,96021.97
2022-11-05T14:21:27.643Z,96020.91
2022-11-05T14:26:30.802Z,96017.22
2022-11-05T14:32:08.455Z,96023.44
2022-11-05T14:37:10.755Z,96018.19
2022-11-05T14:42:15.186Z,96033.50
2022-11-05T14:47:21.853Z,96047.59
2022-11-05T14:52:23.923Z,96046.06
2022-11-05T14:57:40.679Z,96045.22
2022-11-05T15:03:02.580Z,96053.22
2022-11-05T15:08:30.308Z,96048.09
2022-11-05T15:13:37.862Z,96048.56
2022-11-05T15:18:45.796Z,96060.78
2022-11-05T15:23:50.166Z,96062.56
2022-11-05T15:28:55.885Z,96069.03
2022-11-05T15:34:33.852Z,96074.19
2022-11-05T15:39:43.485Z,96068.78
2022-11-05T15:44:47.630Z,96062.94
2022-11-05T15:49:51.867Z,96066.63
2022-11-05T15:55:11.713Z,96070.22
2022-11-05T16:00:17.986Z,96072.88
2022-11-05T16:05:20.113Z,96081.63
2022-11-05T16:10:31.410Z,96078.03
2022-11-05T16:15:32.899Z,96073.22
2022-11-05T16:20:36.002Z,96082.09
2022-11-05T16:25:39.088Z,96086.13
2022-11-05T16:30:40.548Z,96097.88
2022-11-05T16:35:48.821Z,96100.84
2022-11-05T16:40:50.313Z,96099.31
2022-11-05T16:45:57.451Z,96101.69
2022-11-05T16:50:58.898Z,96100.25
2022-11-05T16:56:00.328Z,96094.28
2022-11-05T17:01:04.743Z,96100.25
2022-11-05T17:06:06.645Z,96108.38
2022-11-05T17:11:09.381Z,96110.31
2022-11-05T17:16:16.839Z,96125.75
2022-11-05T17:21:18.231Z,96129.44
2022-11-05T17:26:19.645Z,96127.78
2022-11-05T17:31:21.049Z,96130.06
2022-11-05T17:36:22.473Z,96138.06
2022-11-05T17:41:24.276Z,96129.59
2022-11-05T17:46:25.996Z,96122.97
2022-11-05T17:51:27.425Z,96123.88
2022-11-05T17:56:34.449Z,96124.19
2022-11-05T18:01:38.131Z,96129.50
2022-11-05T18:06:40.654Z,96146.03
2022-11-05T18:11:42.445Z,96144.78
2022-11-05T18:16:43.885Z,96149.53
2022-11-05T18:21:45.311Z,96151.13
2022-11-05T18:26:47.956Z,96153.19
2022-11-05T18:31:49.357Z,96143.38
2022-11-05T18:36:56.013Z,96147.59
2022-11-05T18:41:57.864Z,96151.00
2022-11-05T18:46:59.720Z,96146.78
2022-11-05T18:52:01.130Z,96158.13
2022-11-05T18:57:02.563Z,96144.41
2022-11-05T19:02:04.271Z,96143.44
2022-11-05T19:07:07.260Z,96148.97
2022-11-05T19:12:08.725Z,96142.34
2022-11-05T19:17:10.864Z,96139.41
2022-11-05T19:22:12.472Z,96140.06
2022-11-05T19:27:13.889Z,96146.69
2022-11-05T19:32:15.709Z,96148.59
2022-11-05T19:37:17.106Z,96152.59
2022-11-05T19:42:18.548Z,96142.00
2022-11-05T19:47:19.960Z,96145.56
2022-11-05T19:52:21.401Z,96139.72
2022-11-05T19:57:22.958Z,96143.59
2022-11-05T20:02:24.470Z,96136.31
2022-11-05T20:07:26.033Z,96130.88
2022-11-05T20:12:27.419Z,96140.00
2022-11-05T20:17:29.026Z,96146.22
2022-11-05T20:22:30.425Z,96158.03
2022-11-05T20:27:31.819Z,96159.41
2022-11-05T20:32:33.228Z,96151.22
2022-11-05T20:37:34.953Z,96156.34
2022-11-05T20:42:36.564Z,96159.16
2022-11-05T20:47:37.958Z,96159.78
2022-11-05T20:52:39.372Z,96162.06
2022-11-05T20:57:40.769Z,96160.28
2022-11-05T21:02:42.337Z,96175.31
2022-11-05T21:07:43.832Z,96192.31
2022-11-05T21:12:45.295Z,96192.00
2022-11-05T21:17:46.715Z,96189.19
2022-11-05T21:22:48.119Z,96179.94
2022-11-05T21:27:50.712Z,96166.81
2022-11-05T21:32:52.124Z,96164.84
2022-11-05T21:37:53.657Z,96165.75
2022-11-05T21:42:55.070Z,96160.41
2022-11-05T21:47:56.950Z,96168.56
2022-11-05T21:52:58.360Z,96163.25
2022-11-05T21:58:06.316Z,96161.44
2022-11-05T22:03:07.764Z,96168.56
2022-11-05T22:08:09.341Z,96156.63
2022-11-05T22:13:10.980Z,96144.88
2022-11-05T22:18:12.729Z,96142.81
2022-11-05T22:23:14.252Z,96141.69
2022-11-05T22:28:15.803Z,96149.38
2022-11-05T22:33:17.271Z,96148.19
2022-11-05T22:38:18.706Z,96139.00
2022-11-05T22:43:20.135Z,96135.94
2022-11-05T22:48:21.525Z,96131.63
2022-11-05T22:53:22.916Z,96135.47
2022-11-05T22:58:24.433Z,96140.41
2022-11-05T23:03:26.780Z,96133.63
2022-11-05T23:08:28.295Z,96144.91
2022-11-05T23:13:29.711Z,96125.84
2022-11-05T23:18:31.155Z,96133.78
2022-11-05T23:23:32.575Z,96129.03
2022-11-05T23:28:33.960Z,96114.91
2022-11-05T23:33:35.756Z,96125.75
2022-11-05T23:38:37.259Z,96134.25
2022-11-05T23:43:38.677Z,96117.06
2022-11-05T23:48:40.152Z,96121.94
2022-11-05T23:53:41.573Z,96101.81
2022-11-05T23:58:43.054Z,96089.03
